Time;durP1;ratioP1;P1;durP2;ratioP2;P2;SDS_P1;SDS_P2;PMS_P1;PMS_P2;Temp;Humidity;BMP_temperature;BMP_pressure;BME280_temperature;BME280_humidity;BME280_pressure;Samples;Min_cycle;Max_cycle;Signal;HPM_P1;HPM_P2
2021/09/10 00:00:52;;;;;;;12.40;2.83;;;20.50;99.90;;;;;;4934098;29;20397;-88
2021/09/10 00:03:18;;;;;;;12.75;3.40;;;20.50;99.90;;;;;;4934214;29;20039;-88
2021/09/10 00:05:44;;;;;;;13.30;3.30;;;20.40;99.90;;;;;;4933910;29;20067;-88
2021/09/10 00:08:09;;;;;;;14.88;3.72;;;20.50;99.90;;;;;;4933817;29;20477;-88
2021/09/10 00:10:35;;;;;;;18.13;3.85;;;20.40;99.90;;;;;;4934132;29;20485;-89
2021/09/10 00:13:01;;;;;;;14.82;3.30;;;20.40;99.90;;;;;;4934247;29;20035;-88
2021/09/10 00:15:27;;;;;;;13.57;3.70;;;20.40;99.90;;;;;;4916449;29;20416;-88
2021/09/10 00:17:53;;;;;;;17.45;3.22;;;20.40;99.90;;;;;;4916454;29;20028;-88
2021/09/10 00:20:19;;;;;;;19.13;3.60;;;20.30;99.90;;;;;;4933720;29;20075;-88
2021/09/10 00:22:45;;;;;;;21.30;3.50;;;20.30;99.90;;;;;;4932028;29;20070;-88
2021/09/10 00:25:11;;;;;;;19.38;4.43;;;20.30;99.90;;;;;;4933272;29;20031;-88
2021/09/10 00:27:37;;;;;;;15.05;3.67;;;20.40;99.90;;;;;;4915600;29;20392;-88
2021/09/10 00:30:04;;;;;;;14.25;3.45;;;20.30;99.90;;;;;;4933159;29;20020;-88
2021/09/10 00:32:29;;;;;;;11.05;3.97;;;20.40;99.90;;;;;;4933321;29;20058;-88
2021/09/10 00:34:55;;;;;;;17.42;3.53;;;20.40;99.90;;;;;;4933538;29;20382;-88
2021/09/10 00:37:21;;;;;;;13.88;3.63;;;20.50;99.90;;;;;;4919943;29;20019;-88
2021/09/10 00:39:46;;;;;;;16.33;3.58;;;20.50;99.90;;;;;;4933083;29;20170;-88
2021/09/10 00:42:12;;;;;;;16.77;3.70;;;20.50;99.90;;;;;;4933246;29;20027;-89
2021/09/10 00:44:38;;;;;;;16.90;3.97;;;20.40;99.90;;;;;;4933121;29;20031;-88
2021/09/10 00:47:04;;;;;;;12.15;3.17;;;20.30;99.90;;;;;;4933492;29;20505;-88
2021/09/10 00:49:29;;;;;;;17.30;3.40;;;20.30;99.90;;;;;;4933640;29;20107;-88
2021/09/10 00:51:57;;;;;;;19.77;3.80;;;20.40;99.90;;;;;;4931823;29;20228;-88
2021/09/10 00:54:23;;;;;;;12.88;3.38;;;20.30;99.90;;;;;;4933278;29;20543;-88
2021/09/10 00:56:49;;;;;;;13.57;3.47;;;20.30;99.90;;;;;;4933346;29;20034;-88
2021/09/10 00:59:14;;;;;;;14.75;4.10;;;20.30;99.90;;;;;;4933232;29;20027;-88
2021/09/10 01:01:41;;;;;;;17.90;4.07;;;20.30;99.90;;;;;;4933132;29;20048;-88
2021/09/10 01:04:07;;;;;;;17.20;3.75;;;20.40;99.90;;;;;;4933080;29;20194;-88
2021/09/10 01:06:33;;;;;;;15.00;3.50;;;20.40;99.90;;;;;;4933549;29;20102;-88
2021/09/10 01:09:00;;;;;;;15.35;3.85;;;20.30;99.90;;;;;;4933304;29;20374;-89
2021/09/10 01:11:26;;;;;;;16.60;3.92;;;20.30;99.90;;;;;;4933389;29;20027;-89
2021/09/10 01:13:53;;;;;;;11.15;3.22;;;20.20;99.90;;;;;;4931792;29;20030;-88
2021/09/10 01:16:20;;;;;;;20.15;4.50;;;20.30;99.90;;;;;;4932820;29;20038;-89
2021/09/10 01:18:46;;;;;;;17.88;3.42;;;20.30;99.90;;;;;;4932655;29;20024;-88
2021/09/10 01:21:12;;;;;;;13.77;3.50;;;20.30;99.90;;;;;;4929273;29;20034;-89
2021/09/10 01:23:37;;;;;;;15.70;3.85;;;20.30;99.90;;;;;;4930218;29;20489;-88
2021/09/10 01:26:03;;;;;;;15.95;3.65;;;20.30;99.90;;;;;;4915948;29;20501;-88
2021/09/10 01:28:30;;;;;;;19.35;3.75;;;20.20;99.90;;;;;;4915859;29;20086;-88
2021/09/10 01:30:55;;;;;;;19.92;3.80;;;20.30;99.90;;;;;;4932568;29;20071;-89
2021/09/10 01:33:21;;;;;;;14.73;3.70;;;20.30;99.90;;;;;;4932525;29;20408;-89
2021/09/10 01:35:47;;;;;;;14.50;3.72;;;20.20;99.90;;;;;;4932478;29;20504;-88
2021/09/10 01:38:13;;;;;;;11.20;3.47;;;20.20;99.90;;;;;;4932478;29;20062;-88
2021/09/10 01:40:39;;;;;;;12.60;3.38;;;20.20;99.90;;;;;;4932318;29;20020;-88
2021/09/10 01:43:06;;;;;;;17.52;4.20;;;20.20;99.90;;;;;;4932357;29;20110;-88
2021/09/10 01:45:32;;;;;;;15.98;4.00;;;20.10;99.90;;;;;;4911275;29;20032;-88
2021/09/10 01:47:58;;;;;;;18.52;4.07;;;20.10;99.90;;;;;;4917112;29;20027;-88
2021/09/10 01:50:25;;;;;;;15.15;4.07;;;20.20;99.90;;;;;;4913714;29;20453;-88
2021/09/10 01:52:52;;;;;;;16.38;4.75;;;20.20;99.90;;;;;;4925454;29;20621;-89
2021/09/10 01:55:18;;;;;;;22.63;3.78;;;20.20;99.90;;;;;;4928658;29;20415;-88
2021/09/10 01:57:47;;;;;;;13.27;3.95;;;20.20;99.90;;;;;;4932673;29;20038;-88
2021/09/10 02:00:14;;;;;;;17.50;3.92;;;20.20;99.90;;;;;;4932110;29;20020;-88
2021/09/10 02:02:40;;;;;;;14.63;3.53;;;20.20;99.90;;;;;;4920823;29;20035;-88
2021/09/10 02:05:08;;;;;;;18.63;3.97;;;20.30;99.90;;;;;;4935809;29;20107;-88
2021/09/10 02:07:34;;;;;;;17.38;3.80;;;20.30;99.90;;;;;;4918519;29;20421;-89
2021/09/10 02:10:00;;;;;;;18.70;4.32;;;20.30;99.90;;;;;;4915472;29;20098;-88
2021/09/10 02:12:26;;;;;;;12.02;3.13;;;20.30;99.90;;;;;;4915547;29;20603;-88
2021/09/10 02:14:51;;;;;;;16.27;3.72;;;20.30;99.90;;;;;;4916434;29;20124;-88
2021/09/10 02:17:17;;;;;;;17.00;3.67;;;20.30;99.90;;;;;;4918904;29;20019;-88
2021/09/10 02:19:43;;;;;;;15.52;3.38;;;20.30;99.90;;;;;;4922152;29;20032;-88
2021/09/10 02:22:08;;;;;;;13.60;3.45;;;20.30;99.90;;;;;;4935701;29;20497;-88
2021/09/10 02:24:37;;;;;;;14.07;3.53;;;20.30;99.90;;;;;;4935580;29;20028;-88
2021/09/10 02:27:03;;;;;;;14.40;3.58;;;20.40;99.90;;;;;;4935381;29;20023;-88
2021/09/10 02:29:29;;;;;;;11.60;3.00;;;20.40;99.90;;;;;;4935398;29;20027;-88
2021/09/10 02:31:55;;;;;;;12.85;3.60;;;20.50;99.90;;;;;;4934929;29;20028;-88
2021/09/10 02:34:21;;;;;;;14.13;3.45;;;20.50;99.90;;;;;;4935897;29;20030;-88
2021/09/10 02:36:46;;;;;;;12.90;3.13;;;20.50;99.90;;;;;;4935363;29;20070;-88
2021/09/10 02:39:12;;;;;;;12.93;3.92;;;20.40;99.90;;;;;;4917921;29;20569;-88
2021/09/10 02:41:39;;;;;;;18.52;3.38;;;20.50;99.90;;;;;;4935736;29;20020;-88
2021/09/10 02:44:06;;;;;;;12.40;3.90;;;20.50;99.90;;;;;;4932989;29;20031;-88
2021/09/10 02:46:33;;;;;;;17.10;3.50;;;20.40;99.90;;;;;;4920136;29;20068;-88
2021/09/10 02:48:59;;;;;;;14.95;4.05;;;20.40;99.90;;;;;;4919695;29;20132;-88
2021/09/10 02:51:25;;;;;;;15.27;3.22;;;20.40;99.90;;;;;;4929954;29;20106;-88
2021/09/10 02:53:51;;;;;;;22.15;3.15;;;20.50;99.90;;;;;;4922339;29;20032;-88
2021/09/10 02:56:17;;;;;;;19.65;3.80;;;20.40;99.90;;;;;;4934699;29;20020;-88
2021/09/10 02:58:43;;;;;;;11.20;3.50;;;20.40;99.90;;;;;;4935126;29;20048;-88
2021/09/10 03:01:09;;;;;;;14.65;3.63;;;20.40;99.90;;;;;;4931447;29;20025;-88
2021/09/10 03:03:34;;;;;;;17.30;3.33;;;20.30;99.90;;;;;;4924865;29;20024;-88
2021/09/10 03:06:00;;;;;;;23.30;3.60;;;20.30;99.90;;;;;;4917721;29;20393;-88
2021/09/10 03:08:26;;;;;;;11.45;3.28;;;20.30;99.90;;;;;;4934805;29;20042;-88
2021/09/10 03:10:52;;;;;;;12.35;3.05;;;20.30;99.90;;;;;;4934987;29;20087;-88
2021/09/10 03:13:18;;;;;;;12.23;3.08;;;20.40;99.90;;;;;;4934401;29;20028;-88
2021/09/10 03:15:44;;;;;;;11.52;2.95;;;20.40;99.90;;;;;;4916440;29;20031;-88
2021/09/10 03:18:10;;;;;;;16.25;3.60;;;20.40;99.90;;;;;;4934990;29;20079;-88
2021/09/10 03:20:37;;;;;;;16.23;3.60;;;20.40;99.90;;;;;;4934886;29;20378;-88
2021/09/10 03:23:02;;;;;;;13.65;3.22;;;20.40;99.90;;;;;;4933763;29;20558;-88
2021/09/10 03:25:28;;;;;;;9.02;2.80;;;20.40;99.90;;;;;;4915278;29;20027;-88
2021/09/10 03:27:54;;;;;;;14.20;2.85;;;20.50;99.90;;;;;;4916102;29;20083;-88
2021/09/10 03:30:20;;;;;;;12.07;2.60;;;20.50;99.90;;;;;;4915771;29;20504;-88
2021/09/10 03:32:46;;;;;;;18.27;3.55;;;20.60;99.90;;;;;;4934707;29;20500;-88
2021/09/10 03:35:12;;;;;;;11.52;3.72;;;20.60;99.90;;;;;;4920882;29;20034;-88
2021/09/10 03:37:38;;;;;;;14.50;2.75;;;20.60;99.90;;;;;;4933099;29;20444;-88
2021/09/10 03:40:05;;;;;;;17.48;3.35;;;20.60;99.90;;;;;;4934280;29;20086;-88
2021/09/10 03:42:31;;;;;;;11.55;3.17;;;20.60;99.90;;;;;;4925549;29;20028;-88
2021/09/10 03:44:56;;;;;;;13.10;2.83;;;20.60;99.90;;;;;;4929459;29;20028;-88
2021/09/10 03:47:22;;;;;;;10.65;2.30;;;20.60;99.90;;;;;;4917161;29;20051;-88
2021/09/10 03:49:48;;;;;;;13.93;3.03;;;20.60;99.90;;;;;;4934218;29;20382;-88
2021/09/10 03:52:13;;;;;;;15.70;2.88;;;20.50;99.90;;;;;;4934100;29;20114;-88
2021/09/10 03:54:39;;;;;;;11.93;2.42;;;20.40;99.90;;;;;;4932587;29;20039;-88
2021/09/10 03:57:06;;;;;;;11.93;2.55;;;20.50;99.90;;;;;;4933605;29;20027;-88
2021/09/10 03:59:32;;;;;;;16.13;3.00;;;20.50;99.90;;;;;;4933548;29;20504;-88
2021/09/10 04:01:58;;;;;;;10.45;2.47;;;20.50;99.90;;;;;;4934134;29;20088;-88
2021/09/10 04:04:24;;;;;;;13.27;2.30;;;20.50;99.90;;;;;;4916848;29;20283;-88
2021/09/10 04:06:49;;;;;;;8.23;2.22;;;20.50;99.90;;;;;;4927460;29;20313;-88
2021/09/10 04:09:15;;;;;;;15.88;3.03;;;20.40;99.90;;;;;;4924296;29;20028;-88
2021/09/10 04:11:41;;;;;;;8.68;2.00;;;20.50;99.90;;;;;;4934083;29;20024;-90
2021/09/10 04:14:07;;;;;;;11.30;2.53;;;20.60;99.90;;;;;;4934420;29;20027;-89
2021/09/10 04:16:36;;;;;;;10.77;2.25;;;20.50;99.90;;;;;;4935339;29;20030;-89
2021/09/10 04:19:02;;;;;;;8.60;2.33;;;20.50;99.90;;;;;;4899484;29;20059;-89
2021/09/10 04:21:28;;;;;;;10.57;2.33;;;20.50;99.90;;;;;;4926225;29;20035;-89
2021/09/10 04:23:54;;;;;;;10.35;2.63;;;20.50;99.90;;;;;;4934320;29;20024;-89
2021/09/10 04:26:20;;;;;;;11.80;2.40;;;20.50;99.90;;;;;;4937243;29;20019;-89
2021/09/10 04:28:46;;;;;;;12.65;2.35;;;20.40;99.90;;;;;;4918310;29;20050;-90
2021/09/10 04:31:13;;;;;;;12.85;1.92;;;20.40;99.90;;;;;;4932546;29;20026;-89
2021/09/10 04:33:39;;;;;;;14.57;2.80;;;20.40;99.90;;;;;;4935832;29;20051;-89
2021/09/10 04:36:05;;;;;;;7.85;1.90;;;20.40;99.90;;;;;;4933928;29;20051;-90
2021/09/10 04:38:31;;;;;;;9.57;2.22;;;20.50;99.90;;;;;;4934495;29;20492;-90
2021/09/10 04:40:56;;;;;;;8.00;2.30;;;20.50;99.90;;;;;;4934555;29;20526;-89
2021/09/10 04:43:22;;;;;;;7.68;1.83;;;20.50;99.90;;;;;;4935758;29;20027;-89
2021/09/10 04:45:48;;;;;;;9.55;2.08;;;20.60;99.90;;;;;;4933141;29;20028;-89
2021/09/10 04:48:14;;;;;;;8.10;2.20;;;20.50;99.90;;;;;;4915874;29;20385;-90
2021/09/10 04:50:39;;;;;;;9.77;1.95;;;20.50;99.90;;;;;;4932449;29;20463;-90
2021/09/10 04:53:05;;;;;;;11.75;1.95;;;20.50;99.90;;;;;;4933212;29;20023;-90
2021/09/10 04:55:31;;;;;;;8.63;2.33;;;20.50;99.90;;;;;;4931214;29;20366;-90
2021/09/10 04:57:57;;;;;;;9.25;1.85;;;20.50;99.90;;;;;;4933131;29;20032;-90
2021/09/10 05:00:22;;;;;;;6.88;1.88;;;20.60;99.90;;;;;;4932616;29;20499;-89
2021/09/10 05:02:50;;;;;;;8.43;1.90;;;20.60;99.90;;;;;;4930433;29;20036;-91
2021/09/10 05:05:16;;;;;;;8.70;1.98;;;20.60;99.90;;;;;;4934133;29;20071;-90
2021/09/10 05:07:41;;;;;;;6.47;1.65;;;20.60;99.90;;;;;;4913963;29;20044;-89
2021/09/10 05:10:08;;;;;;;12.68;2.30;;;20.60;99.90;;;;;;4923067;29;20035;-89
2021/09/10 05:12:33;;;;;;;9.25;1.50;;;20.60;99.90;;;;;;4934031;29;20381;-90
2021/09/10 05:14:59;;;;;;;9.18;1.75;;;20.60;99.90;;;;;;4936932;28;20067;-90
2021/09/10 05:17:25;;;;;;;23.65;3.53;;;20.60;99.90;;;;;;4931472;29;20066;-90
2021/09/10 05:19:50;;;;;;;17.02;3.15;;;20.60;99.90;;;;;;4931301;29;20020;-88
2021/09/10 05:22:16;;;;;;;21.20;3.15;;;20.20;99.90;;;;;;4930829;29;20019;-89
2021/09/10 05:24:42;;;;;;;23.15;3.78;;;19.90;99.90;;;;;;4930978;29;20041;-89
2021/09/10 05:27:07;;;;;;;22.77;3.97;;;19.80;99.90;;;;;;4930939;29;20023;-89
2021/09/10 05:29:33;;;;;;;16.98;3.78;;;19.60;99.90;;;;;;4930539;29;20035;-89
2021/09/10 05:31:59;;;;;;;26.05;3.63;;;19.60;99.90;;;;;;4931183;29;20034;-88
2021/09/10 05:34:24;;;;;;;20.20;4.25;;;19.50;99.90;;;;;;4911438;29;20063;-88
2021/09/10 05:36:50;;;;;;;16.30;3.78;;;19.50;99.90;;;;;;4920978;29;20520;-88
2021/09/10 05:39:16;;;;;;;24.58;3.10;;;19.40;99.90;;;;;;4936800;29;20031;-87
2021/09/10 05:41:42;;;;;;;19.85;3.47;;;19.40;99.90;;;;;;4936350;29;20035;-88
2021/09/10 05:44:08;;;;;;;14.15;3.58;;;19.40;99.90;;;;;;4919271;29;20028;-88
2021/09/10 05:46:34;;;;;;;13.48;3.25;;;19.40;99.90;;;;;;4926868;29;20548;-87
2021/09/10 05:49:00;;;;;;;16.83;3.95;;;19.40;99.90;;;;;;4917124;29;20572;-89
2021/09/10 05:51:26;;;;;;;17.27;3.33;;;19.40;99.90;;;;;;4920732;29;20107;-89
2021/09/10 05:53:52;;;;;;;11.45;2.97;;;19.40;99.90;;;;;;4934247;29;20024;-91
2021/09/10 05:56:17;;;;;;;19.02;3.60;;;19.40;99.90;;;;;;4919190;29;20034;-92
2021/09/10 05:58:43;;;;;;;15.50;3.42;;;19.50;99.90;;;;;;4919775;29;20026;-93
2021/09/10 06:01:09;;;;;;;18.48;4.00;;;19.50;99.90;;;;;;4917072;29;20606;-93
2021/09/10 06:03:34;;;;;;;18.25;3.30;;;19.60;99.90;;;;;;4919524;29;20298;-93
2021/09/10 06:06:00;;;;;;;15.55;3.30;;;19.60;99.90;;;;;;4916208;29;20044;-92
2021/09/10 06:08:26;;;;;;;20.88;3.92;;;19.70;99.90;;;;;;4914764;29;20051;-93
2021/09/10 06:10:51;;;;;;;16.00;3.35;;;19.80;99.90;;;;;;4910318;29;20279;-92
2021/09/10 06:13:17;;;;;;;13.77;3.28;;;19.80;99.90;;;;;;4932303;29;20024;-91
2021/09/10 06:15:43;;;;;;;17.40;3.72;;;19.80;99.90;;;;;;4928336;29;20496;-92
2021/09/10 06:18:09;;;;;;;14.38;3.20;;;19.90;99.90;;;;;;4928491;29;20392;-91
2021/09/10 06:20:35;;;;;;;15.80;3.38;;;19.90;99.90;;;;;;4919147;29;20034;-91
2021/09/10 06:23:00;;;;;;;14.15;3.20;;;19.90;99.90;;;;;;4919155;29;20481;-92
2021/09/10 06:25:27;;;;;;;12.25;3.75;;;19.90;99.90;;;;;;4920013;29;20030;-91
2021/09/10 06:27:53;;;;;;;11.35;2.83;;;19.90;99.90;;;;;;4906768;29;20466;-91
2021/09/10 06:30:20;;;;;;;17.70;4.18;;;20.00;99.90;;;;;;4935202;29;20562;-92
2021/09/10 06:32:46;;;;;;;13.60;4.13;;;20.00;99.90;;;;;;4936728;29;20035;-92
2021/09/10 06:35:12;;;;;;;16.88;3.20;;;20.10;99.90;;;;;;4919455;29;20019;-92
2021/09/10 06:37:38;;;;;;;12.85;2.70;;;20.00;99.90;;;;;;4920178;29;20472;-92
2021/09/10 06:40:05;;;;;;;8.85;2.55;;;20.00;99.90;;;;;;4936689;29;20123;-91
2021/09/10 06:42:31;;;;;;;15.18;3.22;;;20.00;99.90;;;;;;4919331;29;20024;-91
2021/09/10 06:44:57;;;;;;;12.18;3.05;;;20.10;99.90;;;;;;4929733;29;20452;-90
2021/09/10 06:47:23;;;;;;;17.33;2.58;;;20.10;99.90;;;;;;4928043;29;20443;-91
2021/09/10 06:49:49;;;;;;;13.05;3.63;;;20.10;99.90;;;;;;4917277;29;20091;-94
2021/09/10 06:52:15;;;;;;;16.02;3.38;;;20.20;99.90;;;;;;4919389;29;20020;-91
2021/09/10 06:54:41;;;;;;;15.38;3.72;;;20.20;99.90;;;;;;4918649;29;20404;-90
2021/09/10 06:57:07;;;;;;;11.27;3.90;;;20.30;99.90;;;;;;4915259;29;20028;-89
2021/09/10 06:59:32;;;;;;;15.48;3.03;;;20.30;99.90;;;;;;4929737;29;20520;-91
2021/09/10 07:01:58;;;;;;;15.23;3.35;;;20.40;99.90;;;;;;4935543;29;20020;-90
2021/09/10 07:04:24;;;;;;;12.27;2.90;;;20.40;99.90;;;;;;4925077;29;20044;-89
2021/09/10 07:06:49;;;;;;;9.75;3.33;;;20.40;99.90;;;;;;4930964;29;20397;-90
2021/09/10 07:09:15;;;;;;;9.00;2.92;;;20.40;99.90;;;;;;4935568;29;20035;-90
2021/09/10 07:11:41;;;;;;;19.08;3.15;;;20.40;99.90;;;;;;4935985;29;20092;-89
2021/09/10 07:14:07;;;;;;;13.10;3.50;;;20.50;99.90;;;;;;4936148;29;20509;-89
2021/09/10 07:16:33;;;;;;;9.43;3.20;;;20.50;99.90;;;;;;4934429;29;20171;-89
2021/09/10 07:18:59;;;;;;;7.47;2.88;;;20.50;99.90;;;;;;4916388;29;20157;-88
2021/09/10 07:21:25;;;;;;;11.32;3.35;;;20.60;99.90;;;;;;4926066;29;20027;-89
2021/09/10 07:23:50;;;;;;;9.02;2.97;;;20.60;99.90;;;;;;4935681;29;20043;-89
2021/09/10 07:26:16;;;;;;;11.75;2.97;;;20.60;99.90;;;;;;4935564;29;20024;-89
2021/09/10 07:28:42;;;;;;;11.43;3.42;;;20.70;99.90;;;;;;4918144;29;20050;-89
2021/09/10 07:31:09;;;;;;;10.57;3.75;;;20.70;99.90;;;;;;4935457;29;20039;-90
2021/09/10 07:33:37;;;;;;;10.32;3.05;;;20.70;99.90;;;;;;4920466;29;20032;-90
2021/09/10 07:36:06;;;;;;;9.82;2.55;;;20.70;99.90;;;;;;4923873;29;20065;-89
2021/09/10 07:38:34;;;;;;;12.85;3.33;;;20.80;99.90;;;;;;4935028;29;20074;-90
2021/09/10 07:41:00;;;;;;;9.20;3.80;;;20.90;99.90;;;;;;4935964;29;20078;-89
2021/09/10 07:43:25;;;;;;;10.40;3.55;;;21.00;99.90;;;;;;4935294;29;20489;-91
2021/09/10 07:45:51;;;;;;;11.27;3.40;;;21.20;99.90;;;;;;4935136;29;20030;-90
2021/09/10 07:48:17;;;;;;;12.85;3.65;;;21.30;99.90;;;;;;4934060;29;20040;-90
2021/09/10 07:50:43;;;;;;;12.63;3.80;;;21.40;99.90;;;;;;4917974;29;20047;-91
2021/09/10 07:53:09;;;;;;;12.18;3.47;;;21.40;99.90;;;;;;4934716;29;20024;-91
2021/09/10 07:55:34;;;;;;;10.93;3.70;;;21.30;99.90;;;;;;4934761;29;20028;-91
2021/09/10 07:58:00;;;;;;;10.85;3.60;;;21.20;99.90;;;;;;4918018;29;20027;-91
2021/09/10 08:00:26;;;;;;;10.18;2.80;;;21.20;99.90;;;;;;4913662;29;20035;-90
2021/09/10 08:02:51;;;;;;;9.13;2.40;;;21.10;99.90;;;;;;4907611;29;20105;-93
2021/09/10 08:05:17;;;;;;;9.00;2.60;;;20.90;99.90;;;;;;4928959;29;20051;-90
2021/09/10 08:07:44;;;;;;;5.20;1.80;;;20.80;99.90;;;;;;4914719;29;20024;-91
2021/09/10 08:10:14;;;;;;;6.28;1.67;;;20.60;99.90;;;;;;4907361;29;20059;-91
2021/09/10 08:12:47;;;;;;;6.82;2.00;;;20.60;99.90;;;;;;4933989;29;20028;-91
2021/09/10 08:15:14;;;;;;;5.45;1.77;;;20.80;99.90;;;;;;4917570;29;20496;-91
2021/09/10 08:17:41;;;;;;;6.25;1.95;;;20.80;99.90;;;;;;4916503;29;20032;-92
2021/09/10 08:20:09;;;;;;;5.03;1.73;;;20.80;99.90;;;;;;4934570;29;20040;-91
2021/09/10 08:22:35;;;;;;;2.92;0.95;;;20.90;99.90;;;;;;4934435;29;20087;-91
2021/09/10 08:25:03;;;;;;;3.70;1.10;;;20.90;99.90;;;;;;4918205;29;20028;-91
2021/09/10 08:27:29;;;;;;;2.88;0.93;;;21.20;99.90;;;;;;4934320;29;20035;-91
2021/09/10 08:29:55;;;;;;;3.65;0.95;;;21.40;99.90;;;;;;4918286;29;20032;-91
2021/09/10 08:32:21;;;;;;;3.40;1.05;;;21.60;99.90;;;;;;4935737;29;20114;-91
2021/09/10 08:34:47;;;;;;;3.13;0.90;;;21.70;99.90;;;;;;4918545;29;20396;-91
2021/09/10 08:37:13;;;;;;;3.83;1.10;;;21.80;99.90;;;;;;4934486;29;20027;-91
2021/09/10 08:39:38;;;;;;;2.60;1.05;;;21.90;99.90;;;;;;4935913;29;20020;-91
2021/09/10 08:42:05;;;;;;;4.22;0.80;;;21.90;99.90;;;;;;4934660;29;20031;-90
2021/09/10 08:44:32;;;;;;;3.05;1.02;;;21.80;99.90;;;;;;4940397;29;20020;-91
2021/09/10 08:46:58;;;;;;;2.50;1.13;;;21.80;99.90;;;;;;4934244;29;20027;-91
2021/09/10 08:49:23;;;;;;;3.47;1.15;;;21.70;99.90;;;;;;4934417;29;20098;-90
2021/09/10 08:51:49;;;;;;;8.57;1.60;;;21.50;99.90;;;;;;4933759;29;20027;-93
2021/09/10 08:54:17;;;;;;;4.65;1.00;;;21.10;99.90;;;;;;4920511;29;20020;-91
2021/09/10 08:56:43;;;;;;;4.28;1.40;;;20.90;99.90;;;;;;4919786;29;20028;-93
2021/09/10 08:59:18;;;;;;;3.70;1.17;;;20.90;99.90;;;;;;4911020;29;20031;-94
2021/09/10 09:01:50;;;;;;;;;;;20.90;99.90;;;;;;4918205;29;20028;-94
2021/09/10 09:04:17;;;;;;;5.03;1.27;;;20.90;99.90;;;;;;4932975;29;20009;-93
2021/09/10 09:06:50;;;;;;;3.97;1.00;;;21.00;99.90;;;;;;4920023;29;20075;-92
2021/09/10 09:09:32;;;;;;;5.65;1.25;;;21.10;99.90;;;;;;4917200;29;20043;-93
2021/09/10 09:12:16;;;;;;;2.88;1.08;;;21.10;99.90;;;;;;4921565;29;20016;-92
2021/09/10 09:14:45;;;;;;;10.25;1.75;;;21.00;99.90;;;;;;4917125;29;20065;-91
2021/09/10 09:17:22;;;;;;;9.65;2.65;;;21.10;99.90;;;;;;4928244;28;20015;-91
2021/09/10 09:20:21;;;;;;;6.25;2.13;;;21.10;99.90;;;;;;4918004;29;20032;-89
2021/09/10 09:23:10;;;;;;;5.72;1.90;;;21.30;99.90;;;;;;4925520;29;20032;-87
2021/09/10 09:25:49;;;;;;;10.63;2.30;;;21.60;99.90;;;;;;4930810;29;20020;-88
2021/09/10 09:28:23;;;;;;;11.55;3.25;;;21.80;99.90;;;;;;4916093;29;20035;-88
2021/09/10 09:30:54;;;;;;;11.32;2.45;;;21.80;99.90;;;;;;4933259;29;20031;-88
2021/09/10 09:33:31;;;;;;;10.75;1.75;;;21.80;99.90;;;;;;4915870;29;20803;-91
2021/09/10 09:35:59;;;;;;;6.40;1.58;;;21.90;99.90;;;;;;4933430;29;20508;-88
2021/09/10 09:38:29;;;;;;;6.13;1.27;;;21.80;99.90;;;;;;4931754;29;20051;-88
2021/09/10 09:40:58;;;;;;;7.63;1.30;;;21.60;99.90;;;;;;4916312;29;20385;-89
2021/09/10 09:43:34;;;;;;;4.30;1.00;;;21.40;99.90;;;;;;4914905;29;20425;-88
2021/09/10 09:46:01;;;;;;;7.75;1.73;;;21.30;99.90;;;;;;4933705;29;20079;-89
2021/09/10 09:48:28;;;;;;;4.78;1.20;;;21.30;99.90;;;;;;4913964;29;20118;-89
2021/09/10 09:50:56;;;;;;;4.15;1.05;;;21.40;99.90;;;;;;4933177;29;20129;-88
2021/09/10 09:53:25;;;;;;;4.13;1.05;;;21.40;99.90;;;;;;4932999;29;20055;-88
2021/09/10 09:55:51;;;;;;;5.25;1.20;;;21.50;99.90;;;;;;4932992;29;20296;-90
2021/09/10 09:58:17;;;;;;;7.05;1.90;;;21.60;99.90;;;;;;4931728;29;20208;-89
2021/09/10 10:00:45;;;;;;;8.52;2.08;;;21.60;99.90;;;;;;4922149;29;20450;-90
2021/09/10 10:03:11;;;;;;;4.38;1.38;;;21.60;99.90;;;;;;4915654;29;20027;-93
2021/09/10 10:05:58;;;;;;;7.30;1.20;;;21.50;99.90;;;;;;4931692;29;20079;-91
2021/09/10 10:08:32;;;;;;;3.55;1.30;;;21.60;99.90;;;;;;4933989;29;20044;-91
2021/09/10 10:11:19;;;;;;;3.30;1.40;;;21.50;99.90;;;;;;4933441;29;20035;-90
2021/09/10 10:13:46;;;;;;;4.05;1.55;;;21.50;99.90;;;;;;4917124;29;20027;-94
2021/09/10 10:16:35;;;;;;;2.88;1.33;;;21.60;99.90;;;;;;4900800;29;20042;-90
2021/09/10 10:19:03;;;;;;;4.30;1.63;;;21.60;99.90;;;;;;4916268;29;20027;-89
2021/09/10 10:21:51;;;;;;;11.25;2.40;;;21.80;99.90;;;;;;4930929;29;20064;-90
2021/09/10 10:24:50;;;;;;;7.75;2.38;;;22.00;99.90;;;;;;4929647;29;20020;-88
2021/09/10 10:27:46;;;;;;;4.70;1.13;;;22.00;99.90;;;;;;4926831;29;20051;-88
2021/09/10 10:30:15;;;;;;;4.32;0.95;;;22.00;99.90;;;;;;4923577;29;20106;-88
2021/09/10 10:32:42;;;;;;;3.30;1.15;;;22.00;99.90;;;;;;4936501;29;20032;-89
2021/09/10 10:35:40;;;;;;;2.58;1.00;;;22.00;99.90;;;;;;4936635;29;20074;-89
2021/09/10 10:38:08;;;;;;;2.60;1.13;;;21.80;99.90;;;;;;4942580;29;20039;-89
2021/09/10 10:40:42;;;;;;;4.07;1.00;;;21.90;99.90;;;;;;4939442;29;20023;-89
2021/09/10 10:43:24;;;;;;;3.47;1.20;;;22.00;99.90;;;;;;4925493;29;20082;-91
2021/09/10 10:45:56;;;;;;;3.08;1.15;;;22.10;99.90;;;;;;4937202;29;20020;-90
2021/09/10 10:48:47;;;;;;;2.15;1.00;;;22.20;99.90;;;;;;4931648;29;20047;-93
2021/09/10 10:51:22;;;;;;;4.28;1.30;;;22.30;99.90;;;;;;4936908;29;20032;-93
2021/09/10 10:53:54;;;;;;;4.97;1.85;;;22.50;99.90;;;;;;4938693;29;20024;-94
2021/09/10 10:56:28;;;;;;;4.05;1.52;;;22.70;99.90;;;;;;4921354;29;20496;-93
2021/09/10 10:59:33;;;;;;;5.20;1.65;;;23.00;99.90;;;;;;4917456;29;20024;-93
2021/09/10 11:02:15;;;;;;;4.30;1.48;;;23.00;99.90;;;;;;4932177;29;20047;-93
2021/09/10 11:04:45;;;;;;;6.05;1.40;;;22.80;99.90;;;;;;4934324;29;20031;-92
2021/09/10 11:07:24;;;;;;;3.70;1.38;;;22.90;99.90;;;;;;4941617;29;20050;-95
2021/09/10 11:10:10;;;;;;;3.08;1.45;;;22.80;99.90;;;;;;4925470;29;20044;-94
2021/09/10 11:12:38;;;;;;;5.68;1.80;;;22.50;99.90;;;;;;4930306;29;20052;-93
2021/09/10 11:15:22;;;;;;;7.47;2.08;;;22.50;99.90;;;;;;4936936;29;20020;-91
2021/09/10 11:17:53;;;;;;;4.05;1.83;;;22.60;99.90;;;;;;4936681;29;20032;-91
2021/09/10 11:20:27;;;;;;;5.85;1.88;;;22.60;99.90;;;;;;4919760;29;20052;-91
2021/09/10 11:22:56;;;;;;;3.95;1.63;;;22.60;99.90;;;;;;4921214;29;20264;-93
2021/09/10 11:25:22;;;;;;;7.10;2.05;;;22.70;99.90;;;;;;4931109;29;20027;-89
2021/09/10 11:27:48;;;;;;;6.13;1.85;;;22.80;99.90;;;;;;4921939;29;20118;-90
2021/09/10 11:30:15;;;;;;;4.97;1.50;;;22.90;99.90;;;;;;4935327;29;20194;-89
2021/09/10 11:32:42;;;;;;;4.72;1.98;;;23.00;99.90;;;;;;4919386;29;20024;-91
2021/09/10 11:35:21;;;;;;;4.82;1.67;;;22.90;99.90;;;;;;4930832;29;20024;-89
2021/09/10 11:37:50;;;;;;;8.93;2.22;;;23.00;99.90;;;;;;4935710;29;20496;-86
2021/09/10 11:40:31;;;;;;;4.10;1.50;;;23.10;99.90;;;;;;4936137;28;20492;-89
2021/09/10 11:43:05;;;;;;;8.02;2.35;;;23.00;99.90;;;;;;4935664;29;20027;-88
2021/09/10 11:45:34;;;;;;;;;;;22.90;99.90;;;;;;4942286;29;20032;-88
2021/09/10 11:48:00;;;;;;;6.30;1.80;;;22.80;99.90;;;;;;4938850;29;20010;-88
2021/09/10 11:50:26;;;;;;;3.42;1.63;;;23.00;99.90;;;;;;4940532;28;20016;-86
2021/09/10 11:52:52;;;;;;;7.80;1.90;;;22.90;99.90;;;;;;4943170;29;20389;-86
2021/09/10 11:55:19;;;;;;;5.82;1.80;;;23.00;99.90;;;;;;4926587;29;20016;-94
2021/09/10 11:57:45;;;;;;;4.95;2.00;;;22.90;99.90;;;;;;4913692;29;20028;-90
2021/09/10 12:00:26;;;;;;;6.38;1.80;;;22.80;99.90;;;;;;4934369;29;20031;-89
2021/09/10 12:02:56;;;;;;;5.38;1.98;;;22.90;99.90;;;;;;4936684;29;20583;-90
2021/09/10 12:05:22;;;;;;;4.70;1.70;;;22.80;99.90;;;;;;4932652;29;20115;-90
2021/09/10 12:07:53;;;;;;;8.10;2.72;;;22.90;99.90;;;;;;4946236;29;20054;-88
2021/09/10 12:10:33;;;;;;;7.10;2.00;;;23.00;99.90;;;;;;4933484;29;20449;-87
2021/09/10 12:13:13;;;;;;;6.03;2.50;;;22.90;99.90;;;;;;4916592;29;20399;-84
2021/09/10 12:15:41;;;;;;;5.90;1.88;;;22.90;99.90;;;;;;4933913;29;20042;-87
2021/09/10 12:18:13;;;;;;;4.93;2.05;;;22.80;99.90;;;;;;4933969;29;20028;-87
2021/09/10 12:20:40;;;;;;;6.97;2.63;;;22.80;99.90;;;;;;4938976;29;20031;-85
2021/09/10 12:23:07;;;;;;;5.28;2.08;;;22.90;99.90;;;;;;4924669;29;20042;-86
2021/09/10 12:25:46;;;;;;;5.50;1.98;;;22.90;99.90;;;;;;4921597;29;20135;-86
2021/09/10 12:28:18;;;;;;;6.63;2.65;;;22.90;99.90;;;;;;4944978;29;20087;-85
2021/09/10 12:31:01;;;;;;;4.75;1.98;;;23.00;99.90;;;;;;4941337;29;20027;-84
2021/09/10 12:33:28;;;;;;;5.03;1.90;;;23.00;99.90;;;;;;4943942;29;20047;-85
2021/09/10 12:36:03;;;;;;;6.40;2.10;;;23.10;99.90;;;;;;4951394;29;20024;-86
2021/09/10 12:38:37;;;;;;;5.78;1.80;;;23.10;99.90;;;;;;4946434;29;20039;-87
2021/09/10 12:41:04;;;;;;;7.78;2.83;;;23.20;99.90;;;;;;4948820;29;20155;-85
2021/09/10 12:43:30;;;;;;;8.38;2.80;;;23.20;99.90;;;;;;4949344;29;20020;-85
2021/09/10 12:45:57;;;;;;;6.22;2.15;;;23.20;99.90;;;;;;4947239;29;20032;-85